Time;durP1;ratioP1;P1;durP2;ratioP2;P2;SDS_P1;SDS_P2;PMS_P1;PMS_P2;Temp;Humidity;BMP_temperature;BMP_pressure;BME280_temperature;BME280_humidity;BME280_pressure;Samples;Min_cycle;Max_cycle;Signal;HPM_P1;HPM_P2
2021/05/23 00:01:30;;;;;;;3.30;2.47;;;;;;;;;;5051441;28;20393;-53
2021/05/23 00:03:56;;;;;;;2.60;2.10;;;;;;;;;;5052044;28;20401;-53
2021/05/23 00:06:22;;;;;;;3.03;2.10;;;;;;;;;;5051424;28;20455;-52
2021/05/23 00:08:47;;;;;;;2.33;2.00;;;;;;;;;;5051409;28;20429;-53
2021/05/23 00:11:13;;;;;;;2.00;1.90;;;;;;;;;;5051154;28;20397;-53
2021/05/23 00:13:41;;;;;;;5.83;2.60;;;;;;;;;;5051305;28;20950;-53
2021/05/23 00:16:08;;;;;;;3.60;2.03;;;;;;;;;;5051315;28;20406;-54
2021/05/23 00:18:36;;;;;;;5.63;2.50;;;;;;;;;;5051282;28;20466;-52
2021/05/23 00:21:03;;;;;;;3.03;2.30;;;;;;;;;;5051375;28;20412;-53
2021/05/23 00:23:29;;;;;;;3.43;2.43;;;;;;;;;;5050800;28;20481;-54
2021/05/23 00:25:55;;;;;;;4.10;2.77;;;;;;;;;;5051085;28;20413;-54
2021/05/23 00:28:21;;;;;;;2.70;2.50;;;;;;;;;;5051111;28;20929;-53
2021/05/23 00:30:47;;;;;;;5.67;2.50;;;;;;;;;;5051150;28;20398;-53
2021/05/23 00:33:14;;;;;;;5.50;2.80;;;;;;;;;;5050362;28;20587;-54
2021/05/23 00:35:40;;;;;;;3.03;2.83;;;;;;;;;;5051054;28;20401;-54
2021/05/23 00:38:07;;;;;;;3.20;2.70;;;;;;;;;;5051156;28;20436;-54
2021/05/23 00:40:34;;;;;;;7.70;3.03;;;;;;;;;;5051314;28;20394;-53
2021/05/23 00:43:00;;;;;;;3.20;2.93;;;;;;;;;;5050865;28;20951;-54
2021/05/23 00:45:26;;;;;;;2.90;2.57;;;;;;;;;;5051165;28;20808;-53
2021/05/23 00:47:53;;;;;;;4.03;2.73;;;;;;;;;;5051051;28;20443;-53
2021/05/23 00:50:21;;;;;;;2.80;2.60;;;;;;;;;;5051209;28;20578;-53
2021/05/23 00:52:47;;;;;;;3.20;3.00;;;;;;;;;;5050791;28;20459;-53
2021/05/23 00:55:13;;;;;;;2.70;2.60;;;;;;;;;;5051027;28;20405;-53
2021/05/23 00:57:39;;;;;;;3.10;2.77;;;;;;;;;;5051216;28;20421;-52
2021/05/23 01:00:08;;;;;;;5.47;2.90;;;;;;;;;;5050952;28;20404;-53
2021/05/23 01:02:41;;;;;;;3.47;3.17;;;;;;;;;;5050105;28;20402;-53
2021/05/23 01:05:08;;;;;;;3.50;3.03;;;;;;;;;;5049998;28;20404;-53
2021/05/23 01:07:34;;;;;;;6.43;3.10;;;;;;;;;;5050730;28;20421;-53
2021/05/23 01:10:08;;;;;;;4.13;3.07;;;;;;;;;;5050537;28;20470;-53
2021/05/23 01:12:36;;;;;;;4.60;3.37;;;;;;;;;;5050408;28;20949;-52
2021/05/23 01:15:02;;;;;;;3.47;3.27;;;;;;;;;;5050497;28;20401;-52
2021/05/23 01:17:36;;;;;;;3.47;3.23;;;;;;;;;;5050618;28;20428;-53
2021/05/23 01:20:11;;;;;;;6.00;4.00;;;;;;;;;;5050507;28;20488;-52
2021/05/23 01:22:40;;;;;;;3.63;3.33;;;;;;;;;;5050300;28;20492;-53
2021/05/23 01:25:06;;;;;;;8.03;3.43;;;;;;;;;;5050637;28;20480;-52
2021/05/23 01:27:37;;;;;;;4.80;3.93;;;;;;;;;;5050414;28;20924;-53
2021/05/23 01:30:05;;;;;;;6.07;4.20;;;;;;;;;;5050391;28;20451;-54
2021/05/23 01:32:31;;;;;;;7.20;3.73;;;;;;;;;;5050274;28;20412;-53
2021/05/23 01:34:59;;;;;;;3.50;2.93;;;;;;;;;;5051138;28;20386;-53
2021/05/23 01:37:25;;;;;;;6.83;4.20;;;;;;;;;;5050435;28;20982;-53
2021/05/23 01:39:52;;;;;;;4.23;3.20;;;;;;;;;;5050763;28;20398;-53
2021/05/23 01:42:18;;;;;;;4.07;3.03;;;;;;;;;;5050062;28;20406;-53
2021/05/23 01:44:45;;;;;;;9.47;3.20;;;;;;;;;;5050510;28;20401;-53
2021/05/23 01:47:11;;;;;;;3.93;3.33;;;;;;;;;;5053787;28;20472;-53
2021/05/23 01:49:37;;;;;;;3.33;3.00;;;;;;;;;;5054479;28;20490;-53
2021/05/23 01:52:03;;;;;;;3.70;3.17;;;;;;;;;;5054011;28;20494;-53
2021/05/23 01:54:29;;;;;;;5.50;3.10;;;;;;;;;;5054155;28;20457;-53
2021/05/23 01:56:55;;;;;;;4.07;3.70;;;;;;;;;;5054185;28;20440;-53
2021/05/23 01:59:21;;;;;;;4.23;3.57;;;;;;;;;;5054033;28;20445;-53
2021/05/23 02:01:47;;;;;;;4.77;3.00;;;;;;;;;;5053993;28;20389;-53
2021/05/23 02:04:13;;;;;;;4.03;3.50;;;;;;;;;;5053889;28;20397;-53
2021/05/23 02:06:39;;;;;;;4.10;3.70;;;;;;;;;;5054048;28;20797;-53
2021/05/23 02:09:05;;;;;;;7.53;4.07;;;;;;;;;;5053762;28;20448;-53
2021/05/23 02:11:31;;;;;;;4.20;3.90;;;;;;;;;;5053712;28;20441;-53
2021/05/23 02:13:57;;;;;;;7.07;4.20;;;;;;;;;;5053693;28;20499;-54
2021/05/23 02:16:23;;;;;;;6.70;4.60;;;;;;;;;;5053871;28;20397;-53
2021/05/23 02:18:49;;;;;;;7.10;4.33;;;;;;;;;;5053487;28;20457;-53
2021/05/23 02:21:16;;;;;;;8.60;3.93;;;;;;;;;;5053932;28;20460;-53
2021/05/23 02:23:49;;;;;;;4.33;3.50;;;;;;;;;;5053994;28;20405;-54
2021/05/23 02:26:15;;;;;;;4.50;4.10;;;;;;;;;;5053459;28;20402;-53
2021/05/23 02:28:41;;;;;;;3.90;3.60;;;;;;;;;;5053687;28;20933;-53
2021/05/23 02:31:07;;;;;;;9.30;4.27;;;;;;;;;;5053651;28;20875;-54
2021/05/23 02:33:33;;;;;;;4.13;3.83;;;;;;;;;;5053173;28;20462;-53
2021/05/23 02:35:59;;;;;;;6.10;4.10;;;;;;;;;;5053551;28;20400;-52
2021/05/23 02:38:25;;;;;;;6.60;4.10;;;;;;;;;;5053594;28;20500;-53
2021/05/23 02:40:51;;;;;;;4.07;3.70;;;;;;;;;;5053032;28;20406;-53
2021/05/23 02:43:18;;;;;;;4.10;3.80;;;;;;;;;;5053316;28;20409;-53
2021/05/23 02:45:44;;;;;;;6.47;4.27;;;;;;;;;;5053273;28;20781;-54
2021/05/23 02:48:11;;;;;;;7.93;4.03;;;;;;;;;;5053032;28;20471;-53
2021/05/23 02:50:42;;;;;;;5.53;3.50;;;;;;;;;;5053301;28;20467;-53
2021/05/23 02:53:08;;;;;;;4.53;3.77;;;;;;;;;;5052817;28;20487;-53
2021/05/23 02:55:34;;;;;;;4.07;3.73;;;;;;;;;;5052999;28;20496;-54
2021/05/23 02:58:00;;;;;;;5.23;3.77;;;;;;;;;;5053180;28;20443;-53
2021/05/23 03:00:27;;;;;;;5.60;4.20;;;;;;;;;;5053144;28;20652;-53
2021/05/23 03:02:53;;;;;;;4.30;3.90;;;;;;;;;;5052669;28;20408;-53
2021/05/23 03:05:22;;;;;;;8.43;3.70;;;;;;;;;;5052946;28;20776;-53
2021/05/23 03:07:49;;;;;;;4.70;4.37;;;;;;;;;;5052534;28;20429;-53
2021/05/23 03:10:17;;;;;;;4.63;4.33;;;;;;;;;;5053319;28;20402;-53
2021/05/23 03:12:44;;;;;;;5.20;4.57;;;;;;;;;;5052986;28;20456;-55
2021/05/23 03:15:12;;;;;;;4.70;4.30;;;;;;;;;;5053213;28;20480;-53
2021/05/23 03:17:38;;;;;;;7.60;4.57;;;;;;;;;;5052958;28;20802;-55
2021/05/23 03:20:05;;;;;;;5.03;4.63;;;;;;;;;;5053384;28;20398;-53
2021/05/23 03:22:31;;;;;;;5.83;4.77;;;;;;;;;;5052846;28;20405;-52
2021/05/23 03:24:57;;;;;;;4.63;4.33;;;;;;;;;;5052858;28;20398;-53
2021/05/23 03:27:23;;;;;;;6.30;5.10;;;;;;;;;;5052530;28;20413;-53
2021/05/23 03:29:49;;;;;;;6.93;5.93;;;;;;;;;;5052773;28;20390;-53
2021/05/23 03:32:15;;;;;;;7.10;5.13;;;;;;;;;;5052480;28;20404;-53
2021/05/23 03:34:41;;;;;;;6.10;5.13;;;;;;;;;;5052348;28;20457;-53
2021/05/23 03:37:07;;;;;;;9.90;5.83;;;;;;;;;;5052308;28;20457;-53
2021/05/23 03:39:33;;;;;;;7.57;5.80;;;;;;;;;;5052399;28;20397;-53
2021/05/23 03:41:59;;;;;;;6.33;5.73;;;;;;;;;;5052357;28;20394;-53
2021/05/23 03:44:25;;;;;;;6.90;6.30;;;;;;;;;;5052120;28;20916;-53
2021/05/23 03:46:51;;;;;;;6.70;5.90;;;;;;;;;;5051901;28;20425;-53
2021/05/23 03:49:17;;;;;;;7.57;5.90;;;;;;;;;;5052056;28;20917;-53
2021/05/23 03:51:45;;;;;;;7.50;6.90;;;;;;;;;;5051803;28;20405;-53
2021/05/23 03:54:11;;;;;;;7.40;5.80;;;;;;;;;;5051955;28;20455;-53
2021/05/23 03:56:37;;;;;;;6.80;6.10;;;;;;;;;;5052157;28;20874;-54
2021/05/23 03:59:03;;;;;;;6.57;5.90;;;;;;;;;;5051839;28;20429;-53
2021/05/23 04:01:29;;;;;;;7.50;6.80;;;;;;;;;;5051718;28;20432;-53
2021/05/23 04:03:58;;;;;;;8.07;7.27;;;;;;;;;;5051716;28;20409;-54
2021/05/23 04:06:24;;;;;;;10.80;7.93;;;;;;;;;;5051720;28;20405;-53
2021/05/23 04:08:50;;;;;;;10.30;8.33;;;;;;;;;;5051364;28;20429;-53
2021/05/23 04:11:20;;;;;;;11.13;7.87;;;;;;;;;;5051755;28;20413;-53
2021/05/23 04:13:47;;;;;;;8.60;7.80;;;;;;;;;;5051701;28;20878;-53
2021/05/23 04:16:13;;;;;;;10.60;9.50;;;;;;;;;;5051630;28;20470;-54
2021/05/23 04:18:39;;;;;;;13.17;9.30;;;;;;;;;;5051718;28;20417;-53
2021/05/23 04:21:05;;;;;;;10.70;9.57;;;;;;;;;;5051485;28;20894;-55
2021/05/23 04:23:31;;;;;;;12.37;9.93;;;;;;;;;;5051125;28;20463;-55
2021/05/23 04:25:57;;;;;;;11.87;10.13;;;;;;;;;;5051696;28;20435;-54
2021/05/23 04:28:24;;;;;;;14.70;10.80;;;;;;;;;;5051575;28;20445;-53
2021/05/23 04:30:51;;;;;;;14.87;11.40;;;;;;;;;;5052002;28;20420;-53
2021/05/23 04:33:17;;;;;;;16.20;10.57;;;;;;;;;;5051435;28;20956;-53
2021/05/23 04:35:44;;;;;;;12.47;10.80;;;;;;;;;;5051760;28;20399;-54
2021/05/23 04:38:10;;;;;;;15.10;11.40;;;;;;;;;;5051756;28;20418;-54
2021/05/23 04:40:36;;;;;;;13.53;11.10;;;;;;;;;;5067467;28;20485;-53
2021/05/23 04:43:02;;;;;;;12.90;10.50;;;;;;;;;;5051649;28;20483;-53
2021/05/23 04:45:28;;;;;;;13.40;10.97;;;;;;;;;;5052074;28;20413;-53
2021/05/23 04:47:54;;;;;;;15.57;10.90;;;;;;;;;;5051473;28;20478;-53
2021/05/23 04:50:20;;;;;;;12.60;11.00;;;;;;;;;;5067300;28;20449;-53
2021/05/23 04:52:46;;;;;;;13.17;11.80;;;;;;;;;;5051605;28;20458;-53
2021/05/23 04:55:12;;;;;;;21.70;11.80;;;;;;;;;;5052293;28;20475;-53
2021/05/23 04:57:38;;;;;;;13.57;10.27;;;;;;;;;;5051847;28;20417;-53
2021/05/23 05:00:06;;;;;;;14.40;11.83;;;;;;;;;;5051553;28;20416;-53
2021/05/23 05:02:32;;;;;;;12.57;9.90;;;;;;;;;;5051507;28;20398;-53
2021/05/23 05:04:57;;;;;;;12.60;10.80;;;;;;;;;;5051894;28;20402;-53
2021/05/23 05:07:23;;;;;;;12.23;9.80;;;;;;;;;;5052068;28;20913;-53
2021/05/23 05:09:49;;;;;;;12.43;10.83;;;;;;;;;;5051791;28;20471;-52
2021/05/23 05:12:15;;;;;;;13.27;10.73;;;;;;;;;;5051831;28;20397;-53
2021/05/23 05:14:41;;;;;;;15.63;10.10;;;;;;;;;;5051763;28;20457;-53
2021/05/23 05:17:07;;;;;;;24.13;12.50;;;;;;;;;;5051653;28;20500;-53
2021/05/23 05:19:33;;;;;;;16.47;13.33;;;;;;;;;;5051852;28;20900;-53
2021/05/23 05:22:00;;;;;;;19.93;13.80;;;;;;;;;;5054932;28;20425;-53
2021/05/23 05:24:26;;;;;;;16.63;11.90;;;;;;;;;;5055487;28;20409;-53
2021/05/23 05:26:52;;;;;;;18.70;13.63;;;;;;;;;;5053967;28;20408;-53
2021/05/23 05:29:18;;;;;;;16.80;12.60;;;;;;;;;;5053860;28;20901;-53
2021/05/23 05:31:44;;;;;;;17.43;13.43;;;;;;;;;;5053491;28;20410;-53
2021/05/23 05:34:10;;;;;;;18.27;12.90;;;;;;;;;;5053787;28;20452;-53
2021/05/23 05:36:36;;;;;;;13.73;11.97;;;;;;;;;;5053734;28;20496;-53
2021/05/23 05:39:02;;;;;;;18.07;13.07;;;;;;;;;;5053722;28;20505;-53
2021/05/23 05:41:28;;;;;;;19.00;13.40;;;;;;;;;;5053495;28;20397;-53
2021/05/23 05:43:54;;;;;;;18.87;12.70;;;;;;;;;;5053620;28;20402;-53
2021/05/23 05:46:20;;;;;;;17.83;11.90;;;;;;;;;;5053280;28;20509;-53
2021/05/23 05:48:46;;;;;;;17.77;12.07;;;;;;;;;;5053563;28;20934;-53
2021/05/23 05:51:12;;;;;;;19.80;12.13;;;;;;;;;;5053481;28;20463;-53
2021/05/23 05:53:38;;;;;;;15.93;12.17;;;;;;;;;;5053389;28;21076;-53
2021/05/23 05:56:04;;;;;;;14.30;11.07;;;;;;;;;;5053464;28;20409;-54
2021/05/23 05:58:30;;;;;;;19.60;12.77;;;;;;;;;;5053247;28;20418;-53
2021/05/23 06:00:56;;;;;;;20.80;12.87;;;;;;;;;;5053375;28;20404;-54
2021/05/23 06:03:22;;;;;;;18.70;11.83;;;;;;;;;;5052981;28;20488;-54
2021/05/23 06:05:48;;;;;;;16.57;11.37;;;;;;;;;;5053347;28;20409;-54
2021/05/23 06:08:14;;;;;;;18.63;11.53;;;;;;;;;;5053031;28;20418;-54
2021/05/23 06:10:40;;;;;;;14.23;10.90;;;;;;;;;;5053207;28;20420;-54
2021/05/23 06:13:06;;;;;;;12.77;10.57;;;;;;;;;;5052696;28;20453;-54
2021/05/23 06:15:32;;;;;;;12.43;10.30;;;;;;;;;;5053092;28;20394;-54
2021/05/23 06:17:59;;;;;;;13.60;10.03;;;;;;;;;;5052909;28;21009;-54
2021/05/23 06:20:25;;;;;;;14.97;10.30;;;;;;;;;;5053141;28;20398;-54
2021/05/23 06:22:51;;;;;;;11.73;10.23;;;;;;;;;;5052612;28;20491;-54
2021/05/23 06:25:17;;;;;;;14.87;10.20;;;;;;;;;;5053050;28;20406;-53
2021/05/23 06:27:43;;;;;;;10.53;9.10;;;;;;;;;;5052792;28;20429;-54
2021/05/23 06:30:09;;;;;;;14.47;10.00;;;;;;;;;;5052690;28;20480;-54
2021/05/23 06:32:35;;;;;;;9.50;8.60;;;;;;;;;;5052078;28;20402;-54
2021/05/23 06:35:01;;;;;;;9.37;8.37;;;;;;;;;;5051454;28;20464;-54
2021/05/23 06:37:28;;;;;;;14.50;9.23;;;;;;;;;;5052784;28;20960;-54
2021/05/23 06:39:54;;;;;;;13.40;8.83;;;;;;;;;;5052637;28;20493;-53
2021/05/23 06:42:20;;;;;;;12.90;7.70;;;;;;;;;;5052523;28;20425;-53
2021/05/23 06:44:46;;;;;;;7.83;6.90;;;;;;;;;;5052830;28;20409;-53
2021/05/23 06:47:12;;;;;;;8.40;6.90;;;;;;;;;;5052588;28;20502;-54
2021/05/23 06:49:38;;;;;;;10.90;5.80;;;;;;;;;;5052450;28;20405;-53
2021/05/23 06:52:04;;;;;;;11.13;6.83;;;;;;;;;;5052410;28;20413;-54
2021/05/23 06:54:30;;;;;;;8.97;6.67;;;;;;;;;;5052322;28;20460;-54
2021/05/23 06:56:56;;;;;;;9.43;6.30;;;;;;;;;;5052205;28;20400;-54
2021/05/23 06:59:25;;;;;;;7.93;5.17;;;;;;;;;;5051071;28;20498;-54
2021/05/23 07:01:52;;;;;;;7.23;5.73;;;;;;;;;;5051929;28;20402;-54
2021/05/23 07:04:18;;;;;;;5.93;5.10;;;;;;;;;;5051855;28;20962;-54
2021/05/23 07:06:43;;;;;;;9.37;5.10;;;;;;;;;;5050086;28;20940;-54
2021/05/23 07:09:09;;;;;;;17.13;5.00;;;;;;;;;;5051644;28;20430;-53
2021/05/23 07:11:35;;;;;;;6.03;5.30;;;;;;;;;;5051024;28;20804;-54
2021/05/23 07:14:01;;;;;;;5.80;4.53;;;;;;;;;;5051448;28;20983;-53
2021/05/23 07:16:27;;;;;;;5.80;4.93;;;;;;;;;;5051740;28;20425;-53
2021/05/23 07:18:53;;;;;;;10.20;5.60;;;;;;;;;;5051842;28;20421;-53
2021/05/23 07:21:19;;;;;;;8.97;4.70;;;;;;;;;;5051571;28;20397;-53
2021/05/23 07:23:45;;;;;;;4.50;4.20;;;;;;;;;;5051816;28;20406;-53
2021/05/23 07:26:11;;;;;;;8.13;4.30;;;;;;;;;;5051618;28;20476;-53
2021/05/23 07:28:37;;;;;;;7.67;4.50;;;;;;;;;;5051557;28;20413;-53
2021/05/23 07:31:04;;;;;;;12.37;5.30;;;;;;;;;;5051674;28;20828;-53
2021/05/23 07:33:30;;;;;;;10.00;4.60;;;;;;;;;;5051157;28;20449;-53
2021/05/23 07:35:56;;;;;;;7.00;4.83;;;;;;;;;;5051595;28;20877;-53
2021/05/23 07:38:22;;;;;;;7.33;5.37;;;;;;;;;;5051423;28;20418;-53
2021/05/23 07:40:49;;;;;;;6.70;4.70;;;;;;;;;;5051397;28;20399;-53
2021/05/23 07:43:15;;;;;;;9.43;5.03;;;;;;;;;;5050303;28;20406;-53
2021/05/23 07:45:41;;;;;;;11.83;5.13;;;;;;;;;;5051457;28;20409;-53
2021/05/23 07:48:07;;;;;;;6.70;4.60;;;;;;;;;;5051028;28;20941;-53
2021/05/23 07:50:33;;;;;;;6.50;4.27;;;;;;;;;;5051348;28;20916;-53
2021/05/23 07:53:01;;;;;;;5.80;4.03;;;;;;;;;;5050994;28;20457;-53
2021/05/23 07:55:27;;;;;;;5.83;4.10;;;;;;;;;;5050993;28;20397;-53
2021/05/23 07:57:53;;;;;;;9.73;5.03;;;;;;;;;;5051177;28;20417;-53
2021/05/23 08:00:19;;;;;;;3.90;3.50;;;;;;;;;;5051021;28;20406;-54
2021/05/23 08:02:45;;;;;;;6.40;4.10;;;;;;;;;;5050934;28;20405;-53
2021/05/23 08:05:11;;;;;;;11.07;4.20;;;;;;;;;;5050927;28;20397;-53
2021/05/23 08:07:37;;;;;;;6.03;3.90;;;;;;;;;;5050999;28;20421;-53
2021/05/23 08:10:05;;;;;;;10.10;5.30;;;;;;;;;;5050769;28;20407;-53
2021/05/23 08:12:32;;;;;;;7.10;3.90;;;;;;;;;;5050677;28;20420;-53
2021/05/23 08:14:58;;;;;;;4.17;3.80;;;;;;;;;;5050809;28;20991;-53
2021/05/23 08:17:23;;;;;;;3.63;3.30;;;;;;;;;;5050877;28;20499;-53
2021/05/23 08:19:49;;;;;;;5.50;3.43;;;;;;;;;;5050761;28;20895;-53
2021/05/23 08:22:15;;;;;;;7.87;3.17;;;;;;;;;;5050721;28;20401;-53
2021/05/23 08:24:41;;;;;;;10.50;3.70;;;;;;;;;;5050712;28;20401;-53
2021/05/23 08:27:07;;;;;;;4.50;2.90;;;;;;;;;;5050584;28;20395;-53
2021/05/23 08:29:34;;;;;;;11.50;3.10;;;;;;;;;;5050805;28;20924;-53
2021/05/23 08:32:00;;;;;;;2.23;2.00;;;;;;;;;;5050518;28;20407;-53
2021/05/23 08:34:27;;;;;;;4.57;1.93;;;;;;;;;;5050626;28;20452;-53
2021/05/23 08:36:53;;;;;;;2.80;2.30;;;;;;;;;;5050537;28;20771;-53
2021/05/23 08:39:19;;;;;;;4.03;2.53;;;;;;;;;;5050578;28;20401;-53
2021/05/23 08:41:46;;;;;;;3.63;2.50;;;;;;;;;;5050271;28;20409;-53
2021/05/23 08:44:18;;;;;;;8.73;2.90;;;;;;;;;;5050534;28;20772;-53
2021/05/23 08:46:45;;;;;;;3.23;2.10;;;;;;;;;;5050375;28;20420;-54
2021/05/23 08:49:11;;;;;;;4.57;2.30;;;;;;;;;;5050535;28;20418;-53
2021/05/23 08:51:38;;;;;;;3.57;2.10;;;;;;;;;;5050239;28;20890;-53
2021/05/23 08:54:04;;;;;;;4.67;2.07;;;;;;;;;;5050656;28;20795;-53
2021/05/23 08:56:30;;;;;;;2.73;1.50;;;;;;;;;;5054628;28;20496;-54
2021/05/23 08:58:56;;;;;;;2.40;1.77;;;;;;;;;;5054730;28;20410;-53
2021/05/23 09:01:29;;;;;;;3.73;1.50;;;;;;;;;;5054682;28;20402;-54
2021/05/23 09:03:56;;;;;;;3.87;1.87;;;;;;;;;;5054711;28;20382;-55
2021/05/23 09:06:28;;;;;;;4.23;1.90;;;;;;;;;;5054644;28;20372;-54
2021/05/23 09:09:01;;;;;;;5.33;2.20;;;;;;;;;;5054514;28;20928;-55
2021/05/23 09:11:27;;;;;;;6.10;2.23;;;;;;;;;;5054573;28;20492;-55
2021/05/23 09:13:53;;;;;;;5.73;2.10;;;;;;;;;;5054158;28;20494;-54
2021/05/23 09:16:19;;;;;;;2.30;1.50;;;;;;;;;;5054304;28;20393;-53
2021/05/23 09:18:45;;;;;;;8.33;1.63;;;;;;;;;;5053934;28;20384;-54
2021/05/23 09:21:12;;;;;;;2.17;1.70;;;;;;;;;;5054367;28;20483;-55
2021/05/23 09:23:45;;;;;;;7.07;1.87;;;;;;;;;;5053923;28;20459;-55
2021/05/23 09:26:14;;;;;;;6.37;2.20;;;;;;;;;;5054322;28;20391;-54
2021/05/23 09:28:40;;;;;;;7.90;1.87;;;;;;;;;;5053945;28;20907;-54
2021/05/23 09:31:13;;;;;;;4.50;1.90;;;;;;;;;;5054057;28;20492;-54
2021/05/23 09:33:50;;;;;;;4.00;1.40;;;;;;;;;;5053649;28;20505;-54
2021/05/23 09:36:17;;;;;;;5.27;1.57;;;;;;;;;;5053968;28;20423;-54
2021/05/23 09:38:52;;;;;;;5.03;1.50;;;;;;;;;;5053902;28;20758;-54
2021/05/23 09:41:19;;;;;;;2.80;1.80;;;;;;;;;;5053876;28;20371;-54
2021/05/23 09:43:45;;;;;;;4.50;1.90;;;;;;;;;;5053594;28;20506;-54
2021/05/23 09:46:11;;;;;;;7.10;1.60;;;;;;;;;;5053478;28;20462;-54
2021/05/23 09:48:37;;;;;;;7.37;2.53;;;;;;;;;;5053673;28;20436;-54
2021/05/23 09:51:11;;;;;;;7.23;1.77;;;;;;;;;;5053424;28;20408;-54
2021/05/23 09:53:39;;;;;;;7.80;2.10;;;;;;;;;;5053415;28;21000;-54
2021/05/23 09:56:10;;;;;;;3.87;1.43;;;;;;;;;;5032718;28;20412;-53
2021/05/23 09:58:37;;;;;;;4.83;1.83;;;;;;;;;;5033499;28;20410;-54
2021/05/23 10:01:24;;;;;;;4.27;1.80;;;;;;;;;;5033431;28;20752;-54
2021/05/23 10:03:50;;;;;;;3.10;1.87;;;;;;;;;;5033431;28;20402;-54
2021/05/23 10:06:25;;;;;;;6.00;1.70;;;;;;;;;;5032387;28;20891;-53
2021/05/23 10:08:51;;;;;;;2.47;1.87;;;;;;;;;;5032029;28;20957;-53
2021/05/23 10:11:17;;;;;;;3.87;1.40;;;;;;;;;;5032874;28;20416;-53
2021/05/23 10:13:43;;;;;;;5.27;1.90;;;;;;;;;;5033120;28;20533;-53
2021/05/23 10:16:09;;;;;;;8.40;2.83;;;;;;;;;;5033252;28;20387;-53
2021/05/23 10:18:35;;;;;;;3.90;1.67;;;;;;;;;;5032939;28;20549;-53
2021/05/23 10:21:01;;;;;;;1.70;1.60;;;;;;;;;;5033035;28;20391;-53
2021/05/23 10:23:30;;;;;;;1.93;1.50;;;;;;;;;;5032693;28;20513;-53
2021/05/23 10:25:58;;;;;;;5.03;1.87;;;;;;;;;;5033029;28;20410;-53
2021/05/23 10:28:24;;;;;;;3.27;1.90;;;;;;;;;;5032892;28;20515;-53
2021/05/23 10:30:51;;;;;;;4.40;1.47;;;;;;;;;;5032987;28;20409;-53
2021/05/23 10:33:18;;;;;;;10.10;1.87;;;;;;;;;;5032631;28;20942;-53
2021/05/23 10:35:45;;;;;;;2.30;1.47;;;;;;;;;;5032872;28;20402;-53
2021/05/23 10:38:12;;;;;;;4.63;1.90;;;;;;;;;;5032639;28;20405;-53
2021/05/23 10:40:49;;;;;;;4.60;1.77;;;;;;;;;;5032994;28;20776;-53
2021/05/23 10:43:20;;;;;;;4.77;1.87;;;;;;;;;;5032651;28;20463;-53
2021/05/23 10:45:46;;;;;;;4.70;1.57;;;;;;;;;;5032957;28;20470;-53
2021/05/23 10:48:14;;;;;;;1.70;1.60;;;;;;;;;;5032807;28;20918;-53
2021/05/23 10:50:40;;;;;;;2.10;1.90;;;;;;;;;;5032757;28;20959;-53
2021/05/23 10:53:07;;;;;;;2.50;1.40;;;;;;;;;;5032476;28;20932;-53
2021/05/23 10:55:33;;;;;;;1.93;1.53;;;;;;;;;;5032449;28;20849;-54
2021/05/23 10:58:00;;;;;;;3.93;1.30;;;;;;;;;;5032528;28;20449;-54
2021/05/23 11:00:27;;;;;;;3.43;1.53;;;;;;;;;;5032387;28;20381;-53
2021/05/23 11:02:54;;;;;;;2.43;1.57;;;;;;;;;;5032092;28;20406;-53
2021/05/23 11:05:27;;;;;;;1.80;1.70;;;;;;;;;;5032214;28;20403;-53
2021/05/23 11:07:56;;;;;;;4.43;1.40;;;;;;;;;;5032209;28;20828;-53
2021/05/23 11:10:24;;;;;;;1.93;1.43;;;;;;;;;;5030828;28;20876;-53
2021/05/23 11:12:57;;;;;;;3.53;1.30;;;;;;;;;;5032100;28;20437;-53
2021/05/23 11:15:23;;;;;;;3.10;1.30;;;;;;;;;;5031978;28;20477;-54
2021/05/23 11:17:50;;;;;;;5.50;1.70;;;;;;;;;;5031996;28;20814;-53
2021/05/23 11:20:17;;;;;;;4.47;2.00;;;;;;;;;;5031949;28;20443;-53
2021/05/23 11:22:46;;;;;;;1.27;1.17;;;;;;;;;;5031663;28;20485;-53
2021/05/23 11:25:12;;;;;;;3.47;1.60;;;;;;;;;;5032409;28;20416;-53
2021/05/23 11:27:38;;;;;;;3.03;1.83;;;;;;;;;;5031650;28;21039;-53
2021/05/23 11:30:12;;;;;;;2.93;1.70;;;;;;;;;;5031659;28;20433;-53
2021/05/23 11:32:38;;;;;;;3.37;1.47;;;;;;;;;;5031284;28;20438;-54
2021/05/23 11:35:04;;;;;;;5.23;1.70;;;;;;;;;;5031653;28;20909;-53
2021/05/23 11:37:40;;;;;;;1.80;1.40;;;;;;;;;;5031472;28;20438;-53
2021/05/23 11:40:07;;;;;;;4.73;1.80;;;;;;;;;;5031699;28;20380;-54
2021/05/23 11:42:40;;;;;;;2.77;1.70;;;;;;;;;;5031104;28;20540;-55
2021/05/23 11:45:07;;;;;;;6.83;1.70;;;;;;;;;;5031534;28;20404;-53
2021/05/23 11:47:43;;;;;;;5.47;1.90;;;;;;;;;;5031116;28;20525;-54
2021/05/23 11:50:20;;;;;;;2.80;1.80;;;;;;;;;;5031484;28;20466;-53
2021/05/23 11:52:49;;;;;;;2.10;1.50;;;;;;;;;;5030901;28;20398;-55
2021/05/23 11:55:14;;;;;;;3.40;1.60;;;;;;;;;;5031299;28;20381;-54
2021/05/23 11:57:40;;;;;;;4.70;1.57;;;;;;;;;;5030972;28;20417;-53
2021/05/23 12:00:16;;;;;;;2.40;1.40;;;;;;;;;;5031273;28;20489;-54
2021/05/23 12:02:42;;;;;;;5.73;1.57;;;;;;;;;;5030989;28;20402;-54
2021/05/23 12:05:08;;;;;;;3.23;1.33;;;;;;;;;;5031007;28;20409;-54
2021/05/23 12:07:38;;;;;;;1.97;1.53;;;;;;;;;;5030940;28;20427;-54
2021/05/23 12:10:04;;;;;;;4.27;1.30;;;;;;;;;;5030940;28;20406;-54
2021/05/23 12:12:30;;;;;;;3.40;1.70;;;;;;;;;;5030927;28;20405;-55
2021/05/23 12:14:57;;;;;;;7.77;1.63;;;;;;;;;;5030846;28;20461;-55
2021/05/23 12:17:24;;;;;;;5.97;1.63;;;;;;;;;;5031012;28;20422;-55
2021/05/23 12:19:58;;;;;;;5.27;1.53;;;;;;;;;;5030764;28;20416;-54
2021/05/23 12:22:28;;;;;;;4.00;1.63;;;;;;;;;;5030693;28;20485;-55
2021/05/23 12:24:54;;;;;;;1.63;1.20;;;;;;;;;;5030794;28;20489;-55
2021/05/23 12:27:24;;;;;;;3.57;1.30;;;;;;;;;;5029580;28;20735;-55
2021/05/23 12:29:50;;;;;;;2.40;1.43;;;;;;;;;;5030299;28;20972;-55
2021/05/23 12:32:16;;;;;;;2.07;1.20;;;;;;;;;;5030540;28;20406;-55
2021/05/23 12:34:42;;;;;;;3.40;1.53;;;;;;;;;;5030350;28;20449;-54
2021/05/23 12:37:09;;;;;;;2.50;1.93;;;;;;;;;;5030663;28;20446;-56
2021/05/23 12:39:34;;;;;;;3.17;1.70;;;;;;;;;;5030789;28;20399;-55
2021/05/23 12:42:03;;;;;;;1.27;1.17;;;;;;;;;;5030346;28;20384;-55
2021/05/23 12:44:30;;;;;;;3.80;1.27;;;;;;;;;;5030627;28;20414;-54
2021/05/23 12:46:56;;;;;;;1.73;1.63;;;;;;;;;;5030307;28;20407;-54
2021/05/23 12:49:23;;;;;;;12.00;1.70;;;;;;;;;;5030527;28;20406;-54
2021/05/23 12:51:50;;;;;;;4.93;2.00;;;;;;;;;;5030297;28;20379;-55
2021/05/23 12:54:25;;;;;;;4.10;1.43;;;;;;;;;;5030401;28;20465;-55
2021/05/23 12:56:51;;;;;;;2.47;1.30;;;;;;;;;;5030272;28;20394;-56
2021/05/23 12:59:20;;;;;;;1.50;1.20;;;;;;;;;;5030626;28;20954;-55
2021/05/23 13:01:46;;;;;;;1.60;1.27;;;;;;;;;;5030070;28;20380;-54
2021/05/23 13:04:13;;;;;;;5.10;1.33;;;;;;;;;;5030579;28;20409;-55
2021/05/23 13:06:47;;;;;;;4.70;1.40;;;;;;;;;;5030451;28;20416;-54
2021/05/23 13:09:13;;;;;;;5.10;1.70;;;;;;;;;;5030822;28;20827;-54
2021/05/23 13:11:52;;;;;;;1.87;1.33;;;;;;;;;;5030494;28;20434;-54
2021/05/23 13:14:18;;;;;;;1.97;1.30;;;;;;;;;;5030195;28;20912;-55
2021/05/23 13:16:45;;;;;;;4.93;1.53;;;;;;;;;;5030603;28;20395;-54
2021/05/23 13:19:12;;;;;;;2.40;1.27;;;;;;;;;;5030227;28;20422;-54
2021/05/23 13:21:38;;;;;;;1.33;1.20;;;;;;;;;;5030292;28;20404;-55
2021/05/23 13:24:04;;;;;;;1.57;1.23;;;;;;;;;;5030142;28;20770;-54
2021/05/23 13:26:30;;;;;;;1.67;1.30;;;;;;;;;;5030208;28;20444;-54
2021/05/23 13:28:56;;;;;;;2.23;1.43;;;;;;;;;;5030050;28;20952;-55
2021/05/23 13:31:22;;;;;;;1.70;1.20;;;;;;;;;;5030042;28;20425;-55
2021/05/23 13:33:48;;;;;;;4.40;1.10;;;;;;;;;;5030099;28;20907;-54
2021/05/23 13:36:15;;;;;;;3.20;1.43;;;;;;;;;;5030374;28;20448;-54
2021/05/23 13:38:42;;;;;;;2.37;1.40;;;;;;;;;;5030108;28;20790;-54
2021/05/23 13:41:08;;;;;;;1.43;1.00;;;;;;;;;;5030276;28;20394;-54
2021/05/23 13:43:35;;;;;;;2.40;1.13;;;;;;;;;;5033415;28;20480;-54
2021/05/23 13:46:01;;;;;;;2.00;1.47;;;;;;;;;;5033632;28;20402;-54
2021/05/23 13:48:27;;;;;;;2.30;1.07;;;;;;;;;;5033462;28;20445;-54
2021/05/23 13:50:53;;;;;;;5.03;1.90;;;;;;;;;;5033526;28;20409;-54
2021/05/23 13:53:19;;;;;;;2.10;1.20;;;;;;;;;;5033302;28;20446;-54
2021/05/23 13:55:48;;;;;;;2.40;1.17;;;;;;;;;;5033266;28;20417;-54
2021/05/23 13:58:14;;;;;;;2.40;1.23;;;;;;;;;;5033432;28;20437;-54
2021/05/23 14:00:40;;;;;;;1.73;1.20;;;;;;;;;;5033538;28;20398;-54
2021/05/23 14:03:16;;;;;;;2.67;1.50;;;;;;;;;;5033007;28;20433;-54
2021/05/23 14:05:46;;;;;;;1.73;1.23;;;;;;;;;;5033455;28;20401;-54
2021/05/23 14:08:13;;;;;;;2.00;1.57;;;;;;;;;;5033059;28;20408;-54
2021/05/23 14:10:39;;;;;;;2.57;2.13;;;;;;;;;;5033205;28;20399;-54
2021/05/23 14:13:05;;;;;;;2.90;1.43;;;;;;;;;;5032817;28;20958;-54
2021/05/23 14:15:32;;;;;;;2.43;1.40;;;;;;;;;;5033180;28;20902;-55
2021/05/23 14:17:58;;;;;;;2.43;1.20;;;;;;;;;;5032887;28;20422;-55
2021/05/23 14:20:26;;;;;;;1.73;1.60;;;;;;;;;;5033153;28;20888;-54
2021/05/23 14:22:52;;;;;;;6.53;1.30;;;;;;;;;;5032669;28;20497;-55
2021/05/23 14:25:18;;;;;;;1.93;1.27;;;;;;;;;;5033323;28;20772;-55
2021/05/23 14:27:44;;;;;;;3.40;1.53;;;;;;;;;;5032987;28;20426;-54
2021/05/23 14:30:11;;;;;;;3.20;1.13;;;;;;;;;;5032873;28;20472;-54
2021/05/23 14:32:37;;;;;;;2.13;1.50;;;;;;;;;;5032759;28;20383;-54
2021/05/23 14:35:03;;;;;;;5.07;1.73;;;;;;;;;;5032590;28;20869;-54
2021/05/23 14:37:29;;;;;;;2.50;1.43;;;;;;;;;;5032630;28;20419;-54